sensor_id;sensor_type;location;lat;lon;timestamp;temperature;humidity
12746;DHT22;6437;53.686;10.030;2022-09-09T00:00:12;15.40;99.90
12746;DHT22;6437;53.686;10.030;2022-09-09T00:03:16;15.50;99.90
12746;DHT22;6437;53.686;10.030;2022-09-09T00:06:20;15.50;99.90
12746;DHT22;6437;53.686;10.030;2022-09-09T00:09:24;15.50;99.90
12746;DHT22;6437;53.686;10.030;2022-09-09T00:12:38;15.50;99.90
12746;DHT22;6437;53.686;10.030;2022-09-09T00:15:46;15.80;99.90
12746;DHT22;6437;53.686;10.030;2022-09-09T00:18:53;15.40;99.90
12746;DHT22;6437;53.686;10.030;2022-09-09T00:22:13;15.40;99.90
12746;DHT22;6437;53.686;10.030;2022-09-09T00:25:19;15.40;99.90
12746;DHT22;6437;53.686;10.030;2022-09-09T00:28:22;15.40;99.90
12746;DHT22;6437;53.686;10.030;2022-09-09T00:31:25;15.40;99.90
12746;DHT22;6437;53.686;10.030;2022-09-09T00:34:27;15.40;99.90
12746;DHT22;6437;53.686;10.030;2022-09-09T00:37:29;15.40;99.90
12746;DHT22;6437;53.686;10.030;2022-09-09T00:40:37;15.40;99.90
12746;DHT22;6437;53.686;10.030;2022-09-09T00:43:40;15.40;99.90
12746;DHT22;6437;53.686;10.030;2022-09-09T00:46:47;15.10;99.90
12746;DHT22;6437;53.686;10.030;2022-09-09T00:49:54;15.50;99.90
12746;DHT22;6437;53.686;10.030;2022-09-09T00:53:06;15.50;99.90
12746;DHT22;6437;53.686;10.030;2022-09-09T00:56:14;15.50;99.90
12746;DHT22;6437;53.686;10.030;2022-09-09T00:59:19;15.50;99.90
12746;DHT22;6437;53.686;10.030;2022-09-09T01:02:25;15.50;99.90
12746;DHT22;6437;53.686;10.030;2022-09-09T01:05:30;15.50;99.90
12746;DHT22;6437;53.686;10.030;2022-09-09T01:11:57;15.50;99.90
12746;DHT22;6437;53.686;10.030;2022-09-09T01:15:05;15.60;99.90
12746;DHT22;6437;53.686;10.030;2022-09-09T01:18:10;15.50;99.90
12746;DHT22;6437;53.686;10.030;2022-09-09T01:21:15;15.50;99.90
12746;DHT22;6437;53.686;10.030;2022-09-09T01:24:20;15.60;99.90
12746;DHT22;6437;53.686;10.030;2022-09-09T01:27:24;15.60;99.90
12746;DHT22;6437;53.686;10.030;2022-09-09T01:30:26;15.60;99.90
12746;DHT22;6437;53.686;10.030;2022-09-09T01:33:28;15.60;99.90
12746;DHT22;6437;53.686;10.030;2022-09-09T01:36:31;15.60;99.90
12746;DHT22;6437;53.686;10.030;2022-09-09T01:39:35;15.60;99.90
12746;DHT22;6437;53.686;10.030;2022-09-09T01:42:38;15.60;99.90
12746;DHT22;6437;53.686;10.030;2022-09-09T01:45:39;15.60;99.90
12746;DHT22;6437;53.686;10.030;2022-09-09T01:48:42;15.60;99.90
12746;DHT22;6437;53.686;10.030;2022-09-09T01:51:44;15.60;99.90
12746;DHT22;6437;53.686;10.030;2022-09-09T01:54:47;15.60;99.90
12746;DHT22;6437;53.686;10.030;2022-09-09T01:57:52;15.70;99.90
12746;DHT22;6437;53.686;10.030;2022-09-09T02:01:00;15.60;99.90
12746;DHT22;6437;53.686;10.030;2022-09-09T02:04:03;15.70;99.90
12746;DHT22;6437;53.686;10.030;2022-09-09T02:07:09;15.70;99.90
12746;DHT22;6437;53.686;10.030;2022-09-09T02:10:16;15.70;99.90
12746;DHT22;6437;53.686;10.030;2022-09-09T02:13:19;15.70;99.90
12746;DHT22;6437;53.686;10.030;2022-09-09T02:16:22;15.70;99.90
12746;DHT22;6437;53.686;10.030;2022-09-09T02:19:25;15.70;99.90
12746;DHT22;6437;53.686;10.030;2022-09-09T02:22:29;15.70;99.90
12746;DHT22;6437;53.686;10.030;2022-09-09T02:25:32;16.00;99.90
12746;DHT22;6437;53.686;10.030;2022-09-09T02:28:37;15.60;99.90
12746;DHT22;6437;53.686;10.030;2022-09-09T02:31:39;15.60;99.90
12746;DHT22;6437;53.686;10.030;2022-09-09T02:34:42;15.70;99.90
12746;DHT22;6437;53.686;10.030;2022-09-09T02:37:45;15.60;99.90
12746;DHT22;6437;53.686;10.030;2022-09-09T02:40:47;15.60;99.90
12746;DHT22;6437;53.686;10.030;2022-09-09T02:43:50;15.60;99.90
12746;DHT22;6437;53.686;10.030;2022-09-09T02:47:02;15.60;99.90
12746;DHT22;6437;53.686;10.030;2022-09-09T02:50:07;15.60;99.90
12746;DHT22;6437;53.686;10.030;2022-09-09T02:53:13;15.60;99.90
12746;DHT22;6437;53.686;10.030;2022-09-09T02:56:18;15.60;99.90
12746;DHT22;6437;53.686;10.030;2022-09-09T02:59:22;15.60;99.90
12746;DHT22;6437;53.686;10.030;2022-09-09T03:02:26;15.60;99.90
12746;DHT22;6437;53.686;10.030;2022-09-09T03:05:27;15.50;99.90
12746;DHT22;6437;53.686;10.030;2022-09-09T03:08:29;15.50;99.90
12746;DHT22;6437;53.686;10.030;2022-09-09T03:11:31;15.50;99.90
12746;DHT22;6437;53.686;10.030;2022-09-09T03:14:34;15.50;99.90
12746;DHT22;6437;53.686;10.030;2022-09-09T03:17:35;15.50;99.90
12746;DHT22;6437;53.686;10.030;2022-09-09T03:20:37;15.50;99.90
12746;DHT22;6437;53.686;10.030;2022-09-09T03:23:39;15.40;99.90
12746;DHT22;6437;53.686;10.030;2022-09-09T03:26:41;15.40;99.90
12746;DHT22;6437;53.686;10.030;2022-09-09T03:29:46;15.40;99.90
12746;DHT22;6437;53.686;10.030;2022-09-09T03:32:50;15.40;99.90
12746;DHT22;6437;53.686;10.030;2022-09-09T03:35:52;15.40;99.90
12746;DHT22;6437;53.686;10.030;2022-09-09T03:38:56;15.40;99.90
12746;DHT22;6437;53.686;10.030;2022-09-09T03:41:59;15.40;99.90
12746;DHT22;6437;53.686;10.030;2022-09-09T03:45:06;15.40;99.90
12746;DHT22;6437;53.686;10.030;2022-09-09T03:48:09;15.40;99.90
12746;DHT22;6437;53.686;10.030;2022-09-09T03:51:12;15.80;99.90
12746;DHT22;6437;53.686;10.030;2022-09-09T03:54:14;15.40;99.90
12746;DHT22;6437;53.686;10.030;2022-09-09T03:57:15;15.30;99.90
12746;DHT22;6437;53.686;10.030;2022-09-09T04:00:18;15.30;99.90
12746;DHT22;6437;53.686;10.030;2022-09-09T04:03:20;15.30;99.90
12746;DHT22;6437;53.686;10.030;2022-09-09T04:06:22;15.30;99.90
12746;DHT22;6437;53.686;10.030;2022-09-09T04:09:24;15.30;99.90
12746;DHT22;6437;53.686;10.030;2022-09-09T04:12:25;15.30;99.90
12746;DHT22;6437;53.686;10.030;2022-09-09T04:15:28;15.30;99.90
12746;DHT22;6437;53.686;10.030;2022-09-09T04:18:30;15.20;99.90
12746;DHT22;6437;53.686;10.030;2022-09-09T04:21:32;15.20;99.90
12746;DHT22;6437;53.686;10.030;2022-09-09T04:24:33;15.20;99.90
12746;DHT22;6437;53.686;10.030;2022-09-09T04:27:35;15.20;99.90
12746;DHT22;6437;53.686;10.030;2022-09-09T04:30:38;15.20;99.90
12746;DHT22;6437;53.686;10.030;2022-09-09T04:33:40;15.20;99.90
12746;DHT22;6437;53.686;10.030;2022-09-09T04:36:42;15.20;99.90
12746;DHT22;6437;53.686;10.030;2022-09-09T04:39:44;15.20;99.90
12746;DHT22;6437;53.686;10.030;2022-09-09T04:42:45;15.20;99.90
12746;DHT22;6437;53.686;10.030;2022-09-09T04:45:50;15.20;99.90
12746;DHT22;6437;53.686;10.030;2022-09-09T04:48:52;15.20;99.90
12746;DHT22;6437;53.686;10.030;2022-09-09T04:51:54;15.20;99.90
12746;DHT22;6437;53.686;10.030;2022-09-09T04:54:56;15.20;99.90
12746;DHT22;6437;53.686;10.030;2022-09-09T04:58:02;15.10;99.90
12746;DHT22;6437;53.686;10.030;2022-09-09T05:01:06;15.10;99.90
12746;DHT22;6437;53.686;10.030;2022-09-09T05:04:08;15.20;99.90
12746;DHT22;6437;53.686;10.030;2022-09-09T05:07:09;15.10;99.90
12746;DHT22;6437;53.686;10.030;2022-09-09T05:10:11;15.10;99.90
12746;DHT22;6437;53.686;10.030;2022-09-09T05:13:16;15.10;99.90
12746;DHT22;6437;53.686;10.030;2022-09-09T05:16:20;15.10;99.90
12746;DHT22;6437;53.686;10.030;2022-09-09T05:19:21;15.10;99.90
12746;DHT22;6437;53.686;10.030;2022-09-09T05:22:23;15.10;99.90
12746;DHT22;6437;53.686;10.030;2022-09-09T05:25:24;14.90;99.90
12746;DHT22;6437;53.686;10.030;2022-09-09T05:28:27;15.20;99.90
12746;DHT22;6437;53.686;10.030;2022-09-09T05:31:32;15.10;99.90
12746;DHT22;6437;53.686;10.030;2022-09-09T05:34:34;15.10;99.90
12746;DHT22;6437;53.686;10.030;2022-09-09T05:37:37;15.10;99.90
12746;DHT22;6437;53.686;10.030;2022-09-09T05:40:46;15.10;99.90
12746;DHT22;6437;53.686;10.030;2022-09-09T05:43:48;15.10;99.90
12746;DHT22;6437;53.686;10.030;2022-09-09T05:46:51;15.10;99.90
12746;DHT22;6437;53.686;10.030;2022-09-09T05:49:53;15.00;99.90
12746;DHT22;6437;53.686;10.030;2022-09-09T05:52:54;15.00;99.90
12746;DHT22;6437;53.686;10.030;2022-09-09T05:55:59;15.00;99.90
12746;DHT22;6437;53.686;10.030;2022-09-09T05:59:02;15.00;99.90
12746;DHT22;6437;53.686;10.030;2022-09-09T06:02:07;15.00;99.90
12746;DHT22;6437;53.686;10.030;2022-09-09T06:05:08;15.00;99.90
12746;DHT22;6437;53.686;10.030;2022-09-09T06:08:11;15.10;99.90
12746;DHT22;6437;53.686;10.030;2022-09-09T06:11:13;15.10;99.90
12746;DHT22;6437;53.686;10.030;2022-09-09T06:14:15;15.10;99.90
12746;DHT22;6437;53.686;10.030;2022-09-09T06:17:19;15.10;99.90
12746;DHT22;6437;53.686;10.030;2022-09-09T06:20:21;15.10;99.90
12746;DHT22;6437;53.686;10.030;2022-09-09T06:23:23;15.10;99.90
12746;DHT22;6437;53.686;10.030;2022-09-09T06:26:25;15.10;99.90
12746;DHT22;6437;53.686;10.030;2022-09-09T06:29:27;15.20;99.90
12746;DHT22;6437;53.686;10.030;2022-09-09T06:32:30;15.10;99.90
12746;DHT22;6437;53.686;10.030;2022-09-09T06:35:33;15.20;99.90
12746;DHT22;6437;53.686;10.030;2022-09-09T06:38:34;15.20;99.90
12746;DHT22;6437;53.686;10.030;2022-09-09T06:41:36;15.20;99.90
12746;DHT22;6437;53.686;10.030;2022-09-09T06:44:38;15.20;99.90
12746;DHT22;6437;53.686;10.030;2022-09-09T06:47:41;15.20;99.90
12746;DHT22;6437;53.686;10.030;2022-09-09T06:50:43;15.20;99.90
12746;DHT22;6437;53.686;10.030;2022-09-09T06:53:45;15.20;99.90
12746;DHT22;6437;53.686;10.030;2022-09-09T06:56:47;15.30;99.90
12746;DHT22;6437;53.686;10.030;2022-09-09T06:59:50;15.30;99.90
12746;DHT22;6437;53.686;10.030;2022-09-09T07:02:53;15.40;99.90
12746;DHT22;6437;53.686;10.030;2022-09-09T07:05:54;15.40;99.90
12746;DHT22;6437;53.686;10.030;2022-09-09T07:08:57;15.50;99.90
12746;DHT22;6437;53.686;10.030;2022-09-09T07:11:59;15.50;99.90
12746;DHT22;6437;53.686;10.030;2022-09-09T07:15:01;15.70;99.90
12746;DHT22;6437;53.686;10.030;2022-09-09T07:18:04;15.60;99.90
12746;DHT22;6437;53.686;10.030;2022-09-09T07:21:05;15.70;99.90
12746;DHT22;6437;53.686;10.030;2022-09-09T07:24:08;15.70;99.90
12746;DHT22;6437;53.686;10.030;2022-09-09T07:27:10;15.80;99.90
12746;DHT22;6437;53.686;10.030;2022-09-09T07:30:12;15.80;99.90
12746;DHT22;6437;53.686;10.030;2022-09-09T07:33:15;15.90;99.90
12746;DHT22;6437;53.686;10.030;2022-09-09T07:36:18;16.00;99.90
12746;DHT22;6437;53.686;10.030;2022-09-09T07:39:21;16.00;99.90
12746;DHT22;6437;53.686;10.030;2022-09-09T07:42:24;16.10;99.90
12746;DHT22;6437;53.686;10.030;2022-09-09T07:45:25;16.20;99.90
12746;DHT22;6437;53.686;10.030;2022-09-09T07:48:29;16.20;99.90
12746;DHT22;6437;53.686;10.030;2022-09-09T07:51:32;16.30;99.90
12746;DHT22;6437;53.686;10.030;2022-09-09T07:54:34;16.30;99.90
12746;DHT22;6437;53.686;10.030;2022-09-09T07:57:36;16.30;99.90
12746;DHT22;6437;53.686;10.030;2022-09-09T08:00:37;16.30;99.90
12746;DHT22;6437;53.686;10.030;2022-09-09T08:03:45;16.40;99.90
12746;DHT22;6437;53.686;10.030;2022-09-09T08:06:48;16.40;99.90
12746;DHT22;6437;53.686;10.030;2022-09-09T08:09:49;16.40;99.90
12746;DHT22;6437;53.686;10.030;2022-09-09T08:12:51;16.50;99.90
12746;DHT22;6437;53.686;10.030;2022-09-09T08:15:53;16.50;99.90
12746;DHT22;6437;53.686;10.030;2022-09-09T08:18:56;16.50;99.90
12746;DHT22;6437;53.686;10.030;2022-09-09T08:21:58;16.50;99.90
12746;DHT22;6437;53.686;10.030;2022-09-09T08:25:02;16.50;99.90
12746;DHT22;6437;53.686;10.030;2022-09-09T08:28:06;16.60;99.90
12746;DHT22;6437;53.686;10.030;2022-09-09T08:31:11;16.60;99.90
12746;DHT22;6437;53.686;10.030;2022-09-09T08:34:14;16.60;99.90
12746;DHT22;6437;53.686;10.030;2022-09-09T08:37:17;16.60;99.90
12746;DHT22;6437;53.686;10.030;2022-09-09T08:40:22;16.70;99.90
12746;DHT22;6437;53.686;10.030;2022-09-09T08:43:26;16.70;99.90
12746;DHT22;6437;53.686;10.030;2022-09-09T08:46:31;16.70;99.90
12746;DHT22;6437;53.686;10.030;2022-09-09T08:49:51;16.80;99.90
12746;DHT22;6437;53.686;10.030;2022-09-09T08:53:00;16.80;99.90
12746;DHT22;6437;53.686;10.030;2022-09-09T08:56:03;16.80;99.90
12746;DHT22;6437;53.686;10.030;2022-09-09T08:59:09;16.80;99.90
12746;DHT22;6437;53.686;10.030;2022-09-09T09:02:15;16.90;99.90
12746;DHT22;6437;53.686;10.030;2022-09-09T09:05:21;16.90;99.90
12746;DHT22;6437;53.686;10.030;2022-09-09T09:08:26;17.00;99.90
12746;DHT22;6437;53.686;10.030;2022-09-09T09:11:35;17.00;99.90
12746;DHT22;6437;53.686;10.030;2022-09-09T09:14:37;17.00;99.90
12746;DHT22;6437;53.686;10.030;2022-09-09T09:17:38;17.00;99.90
12746;DHT22;6437;53.686;10.030;2022-09-09T09:20:42;17.10;99.90
12746;DHT22;6437;53.686;10.030;2022-09-09T09:23:51;17.10;99.90
12746;DHT22;6437;53.686;10.030;2022-09-09T09:26:55;17.20;99.90
12746;DHT22;6437;53.686;10.030;2022-09-09T09:29:58;17.20;99.90
12746;DHT22;6437;53.686;10.030;2022-09-09T09:33:01;17.40;99.90
12746;DHT22;6437;53.686;10.030;2022-09-09T09:36:06;17.40;99.90
12746;DHT22;6437;53.686;10.030;2022-09-09T09:39:08;17.40;99.90
12746;DHT22;6437;53.686;10.030;2022-09-09T09:42:10;17.40;99.90
12746;DHT22;6437;53.686;10.030;2022-09-09T09:45:15;17.50;99.90
12746;DHT22;6437;53.686;10.030;2022-09-09T09:48:19;17.50;99.90
12746;DHT22;6437;53.686;10.030;2022-09-09T09:51:21;17.40;99.90
12746;DHT22;6437;53.686;10.030;2022-09-09T09:54:25;17.50;99.90
12746;DHT22;6437;53.686;10.030;2022-09-09T09:57:29;17.50;99.90
12746;DHT22;6437;53.686;10.030;2022-09-09T10:00:32;17.50;99.90
12746;DHT22;6437;53.686;10.030;2022-09-09T10:03:35;17.60;99.90
12746;DHT22;6437;53.686;10.030;2022-09-09T10:06:42;17.60;99.90
12746;DHT22;6437;53.686;10.030;2022-09-09T10:09:43;17.60;99.90
12746;DHT22;6437;53.686;10.030;2022-09-09T10:12:47;17.60;99.90
12746;DHT22;6437;53.686;10.030;2022-09-09T10:15:53;17.70;99.90
12746;DHT22;6437;53.686;10.030;2022-09-09T10:18:58;17.70;99.90
12746;DHT22;6437;53.686;10.030;2022-09-09T10:22:14;17.80;99.90
12746;DHT22;6437;53.686;10.030;2022-09-09T10:25:24;17.90;99.90
12746;DHT22;6437;53.686;10.030;2022-09-09T10:28:30;18.00;99.90
12746;DHT22;6437;53.686;10.030;2022-09-09T10:31:35;18.10;99.90
12746;DHT22;6437;53.686;10.030;2022-09-09T10:34:45;18.10;99.90
12746;DHT22;6437;53.686;10.030;2022-09-09T10:38:01;18.20;99.90
12746;DHT22;6437;53.686;10.030;2022-09-09T10:41:11;18.20;99.90
12746;DHT22;6437;53.686;10.030;2022-09-09T10:44:19;18.40;99.90
12746;DHT22;6437;53.686;10.030;2022-09-09T10:47:32;18.50;99.90
12746;DHT22;6437;53.686;10.030;2022-09-09T10:50:50;18.60;99.90
12746;DHT22;6437;53.686;10.030;2022-09-09T10:54:01;18.70;99.90
12746;DHT22;6437;53.686;10.030;2022-09-09T10:57:10;18.80;99.90
12746;DHT22;6437;53.686;10.030;2022-09-09T11:00:15;18.90;99.90
12746;DHT22;6437;53.686;10.030;2022-09-09T11:03:19;19.00;99.90
12746;DHT22;6437;53.686;10.030;2022-09-09T11:06:23;19.00;99.90
12746;DHT22;6437;53.686;10.030;2022-09-09T11:09:30;19.10;99.90
12746;DHT22;6437;53.686;10.030;2022-09-09T11:12:34;19.20;99.90
12746;DHT22;6437;53.686;10.030;2022-09-09T11:15:39;19.30;99.90
12746;DHT22;6437;53.686;10.030;2022-09-09T11:18:42;19.40;99.90
12746;DHT22;6437;53.686;10.030;2022-09-09T11:21:46;19.40;99.90
12746;DHT22;6437;53.686;10.030;2022-09-09T11:24:49;19.50;99.90
12746;DHT22;6437;53.686;10.030;2022-09-09T11:27:57;19.50;99.90
12746;DHT22;6437;53.686;10.030;2022-09-09T11:31:07;19.40;99.90
12746;DHT22;6437;53.686;10.030;2022-09-09T11:34:16;19.40;99.90
12746;DHT22;6437;53.686;10.030;2022-09-09T11:37:28;19.50;99.90
12746;DHT22;6437;53.686;10.030;2022-09-09T11:40:34;19.40;99.90
12746;DHT22;6437;53.686;10.030;2022-09-09T11:43:38;19.40;99.90
12746;DHT22;6437;53.686;10.030;2022-09-09T11:46:41;19.40;99.90
12746;DHT22;6437;53.686;10.030;2022-09-09T11:49:43;19.50;99.90
12746;DHT22;6437;53.686;10.030;2022-09-09T11:52:46;19.50;99.90
12746;DHT22;6437;53.686;10.030;2022-09-09T11:56:06;19.50;99.90
12746;DHT22;6437;53.686;10.030;2022-09-09T11:59:18;19.50;99.90
12746;DHT22;6437;53.686;10.030;2022-09-09T12:02:22;19.50;99.90
12746;DHT22;6437;53.686;10.030;2022-09-09T12:05:25;19.50;99.90
12746;DHT22;6437;53.686;10.030;2022-09-09T12:08:37;19.40;99.90
12746;DHT22;6437;53.686;10.030;2022-09-09T12:11:43;19.40;99.90
12746;DHT22;6437;53.686;10.030;2022-09-09T12:14:54;19.40;99.90
12746;DHT22;6437;53.686;10.030;2022-09-09T12:17:56;19.50;99.90
12746;DHT22;6437;53.686;10.030;2022-09-09T12:21:00;19.60;99.90
12746;DHT22;6437;53.686;10.030;2022-09-09T12:24:05;19.80;99.90
12746;DHT22;6437;53.686;10.030;2022-09-09T12:27:12;19.60;99.90
12746;DHT22;6437;53.686;10.030;2022-09-09T12:30:17;19.70;99.90
12746;DHT22;6437;53.686;10.030;2022-09-09T12:33:19;19.80;99.90
12746;DHT22;6437;53.686;10.030;2022-09-09T12:36:23;19.90;99.90
12746;DHT22;6437;53.686;10.030;2022-09-09T12:39:28;19.80;99.90
12746;DHT22;6437;53.686;10.030;2022-09-09T12:42:31;19.70;99.90
12746;DHT22;6437;53.686;10.030;2022-09-09T12:45:34;19.70;99.90
12746;DHT22;6437;53.686;10.030;2022-09-09T12:48:36;19.60;99.90
12746;DHT22;6437;53.686;10.030;2022-09-09T12:51:40;19.60;99.90
12746;DHT22;6437;53.686;10.030;2022-09-09T12:54:45;19.60;99.90
12746;DHT22;6437;53.686;10.030;2022-09-09T12:57:49;19.50;99.90
12746;DHT22;6437;53.686;10.030;2022-09-09T13:00:52;19.50;99.90
12746;DHT22;6437;53.686;10.030;2022-09-09T13:03:56;19.40;99.90
12746;DHT22;6437;53.686;10.030;2022-09-09T13:07:05;19.40;99.90
12746;DHT22;6437;53.686;10.030;2022-09-09T13:10:10;19.30;99.90
12746;DHT22;6437;53.686;10.030;2022-09-09T13:13:14;19.30;99.90
12746;DHT22;6437;53.686;10.030;2022-09-09T13:16:18;19.30;99.90
12746;DHT22;6437;53.686;10.030;2022-09-09T13:19:20;19.30;99.90
12746;DHT22;6437;53.686;10.030;2022-09-09T13:22:27;19.20;99.90
12746;DHT22;6437;53.686;10.030;2022-09-09T13:25:30;19.10;99.90
12746;DHT22;6437;53.686;10.030;2022-09-09T13:28:33;19.10;99.90
12746;DHT22;6437;53.686;10.030;2022-09-09T13:31:36;19.10;99.90
12746;DHT22;6437;53.686;10.030;2022-09-09T13:34:38;19.00;99.90
12746;DHT22;6437;53.686;10.030;2022-09-09T13:37:40;19.00;99.90
12746;DHT22;6437;53.686;10.030;2022-09-09T13:40:51;18.90;99.90
12746;DHT22;6437;53.686;10.030;2022-09-09T13:43:54;18.80;99.90
12746;DHT22;6437;53.686;10.030;2022-09-09T13:47:00;18.80;99.90
12746;DHT22;6437;53.686;10.030;2022-09-09T13:50:10;18.60;99.90
12746;DHT22;6437;53.686;10.030;2022-09-09T13:53:11;18.70;99.90
12746;DHT22;6437;53.686;10.030;2022-09-09T13:56:13;18.60;99.90
12746;DHT22;6437;53.686;10.030;2022-09-09T13:59:17;18.50;99.90
12746;DHT22;6437;53.686;10.030;2022-09-09T14:02:20;18.40;99.90
12746;DHT22;6437;53.686;10.030;2022-09-09T14:05:23;18.30;99.90
12746;DHT22;6437;53.686;10.030;2022-09-09T14:08:25;18.20;99.90
12746;DHT22;6437;53.686;10.030;2022-09-09T14:11:28;18.20;99.90
12746;DHT22;6437;53.686;10.030;2022-09-09T14:14:31;18.10;99.90
12746;DHT22;6437;53.686;10.030;2022-09-09T14:17:33;18.10;99.90
12746;DHT22;6437;53.686;10.030;2022-09-09T14:20:36;18.00;99.90
12746;DHT22;6437;53.686;10.030;2022-09-09T14:23:38;18.00;99.90
12746;DHT22;6437;53.686;10.030;2022-09-09T14:26:40;18.00;99.90
12746;DHT22;6437;53.686;10.030;2022-09-09T14:29:43;17.90;99.90
12746;DHT22;6437;53.686;10.030;2022-09-09T14:32:45;17.90;99.90
12746;DHT22;6437;53.686;10.030;2022-09-09T14:35:47;17.80;99.90
12746;DHT22;6437;53.686;10.030;2022-09-09T14:38:49;17.80;99.90
12746;DHT22;6437;53.686;10.030;2022-09-09T14:41:50;17.80;99.90
12746;DHT22;6437;53.686;10.030;2022-09-09T14:44:53;17.80;99.90
12746;DHT22;6437;53.686;10.030;2022-09-09T14:47:55;17.80;99.90
12746;DHT22;6437;53.686;10.030;2022-09-09T14:50:57;17.70;99.90
12746;DHT22;6437;53.686;10.030;2022-09-09T14:54:05;17.70;99.90
12746;DHT22;6437;53.686;10.030;2022-09-09T14:57:07;17.70;99.90
12746;DHT22;6437;53.686;10.030;2022-09-09T15:00:10;17.60;99.90
12746;DHT22;6437;53.686;10.030;2022-09-09T15:03:12;17.60;99.90
12746;DHT22;6437;53.686;10.030;2022-09-09T15:06:14;17.60;99.90
12746;DHT22;6437;53.686;10.030;2022-09-09T15:09:16;17.60;99.90
12746;DHT22;6437;53.686;10.030;2022-09-09T15:12:17;17.60;99.90
12746;DHT22;6437;53.686;10.030;2022-09-09T15:15:20;17.20;99.90
12746;DHT22;6437;53.686;10.030;2022-09-09T15:18:22;17.60;99.90
12746;DHT22;6437;53.686;10.030;2022-09-09T15:21:24;17.50;99.90
12746;DHT22;6437;53.686;10.030;2022-09-09T15:24:26;17.50;99.90
12746;DHT22;6437;53.686;10.030;2022-09-09T15:27:27;17.50;99.90
12746;DHT22;6437;53.686;10.030;2022-09-09T15:30:33;17.50;99.90
12746;DHT22;6437;53.686;10.030;2022-09-09T15:33:34;17.50;99.90
12746;DHT22;6437;53.686;10.030;2022-09-09T15:36:38;17.50;99.90
12746;DHT22;6437;53.686;10.030;2022-09-09T15:39:40;17.50;99.90
12746;DHT22;6437;53.686;10.030;2022-09-09T15:42:41;17.50;99.90
12746;DHT22;6437;53.686;10.030;2022-09-09T15:45:45;17.50;99.90
12746;DHT22;6437;53.686;10.030;2022-09-09T15:48:47;17.50;99.90
12746;DHT22;6437;53.686;10.030;2022-09-09T15:51:50;17.50;99.90
12746;DHT22;6437;53.686;10.030;2022-09-09T15:54:52;17.40;99.90
12746;DHT22;6437;53.686;10.030;2022-09-09T15:57:54;17.40;99.90
12746;DHT22;6437;53.686;10.030;2022-09-09T16:01:02;17.50;99.90
12746;DHT22;6437;53.686;10.030;2022-09-09T16:04:04;17.40;99.90
12746;DHT22;6437;53.686;10.030;2022-09-09T16:07:06;17.50;99.90
12746;DHT22;6437;53.686;10.030;2022-09-09T16:10:08;17.50;99.90
12746;DHT22;6437;53.686;10.030;2022-09-09T16:13:11;17.50;99.90
12746;DHT22;6437;53.686;10.030;2022-09-09T16:16:15;17.50;99.90
12746;DHT22;6437;53.686;10.030;2022-09-09T16:19:17;17.50;99.90
12746;DHT22;6437;53.686;10.030;2022-09-09T16:22:19;17.50;99.90
12746;DHT22;6437;53.686;10.030;2022-09-09T16:25:21;17.50;99.90
12746;DHT22;6437;53.686;10.030;2022-09-09T16:28:22;17.50;99.90
12746;DHT22;6437;53.686;10.030;2022-09-09T16:31:25;17.50;99.90
12746;DHT22;6437;53.686;10.030;2022-09-09T16:34:28;17.50;99.90
12746;DHT22;6437;53.686;10.030;2022-09-09T16:37:29;17.50;99.90
12746;DHT22;6437;53.686;10.030;2022-09-09T16:40:33;17.50;99.90
12746;DHT22;6437;53.686;10.030;2022-09-09T16:43:35;17.50;99.90
12746;DHT22;6437;53.686;10.030;2022-09-09T16:46:39;17.60;99.90
12746;DHT22;6437;53.686;10.030;2022-09-09T16:49:40;17.50;99.90
12746;DHT22;6437;53.686;10.030;2022-09-09T16:52:42;17.50;99.90
12746;DHT22;6437;53.686;10.030;2022-09-09T16:55:44;17.50;99.90
12746;DHT22;6437;53.686;10.030;2022-09-09T16:58:48;17.50;99.90
12746;DHT22;6437;53.686;10.030;2022-09-09T17:01:51;17.50;99.90
12746;DHT22;6437;53.686;10.030;2022-09-09T17:04:53;17.50;99.90
12746;DHT22;6437;53.686;10.030;2022-09-09T17:07:55;17.50;99.90
12746;DHT22;6437;53.686;10.030;2022-09-09T17:10:57;17.20;99.90
12746;DHT22;6437;53.686;10.030;2022-09-09T17:13:59;17.50;99.90
12746;DHT22;6437;53.686;10.030;2022-09-09T17:17:02;17.50;99.90
12746;DHT22;6437;53.686;10.030;2022-09-09T17:20:05;17.50;99.90
12746;DHT22;6437;53.686;10.030;2022-09-09T17:23:07;17.50;99.90
12746;DHT22;6437;53.686;10.030;2022-09-09T17:26:10;17.50;99.90
12746;DHT22;6437;53.686;10.030;2022-09-09T17:29:12;17.50;99.90
12746;DHT22;6437;53.686;10.030;2022-09-09T17:32:15;17.40;99.90
12746;DHT22;6437;53.686;10.030;2022-09-09T17:35:17;17.40;99.90
12746;DHT22;6437;53.686;10.030;2022-09-09T17:38:19;17.40;99.90
12746;DHT22;6437;53.686;10.030;2022-09-09T17:41:23;17.00;99.90
12746;DHT22;6437;53.686;10.030;2022-09-09T17:44:25;17.30;99.90
12746;DHT22;6437;53.686;10.030;2022-09-09T17:47:27;17.30;99.90
12746;DHT22;6437;53.686;10.030;2022-09-09T17:50:30;17.30;99.90
12746;DHT22;6437;53.686;10.030;2022-09-09T17:53:35;17.30;99.90
12746;DHT22;6437;53.686;10.030;2022-09-09T17:56:37;17.30;99.90
12746;DHT22;6437;53.686;10.030;2022-09-09T17:59:39;17.20;99.90
12746;DHT22;6437;53.686;10.030;2022-09-09T18:02:42;17.20;99.90
12746;DHT22;6437;53.686;10.030;2022-09-09T18:05:45;17.20;99.90
12746;DHT22;6437;53.686;10.030;2022-09-09T18:08:47;17.30;99.90
12746;DHT22;6437;53.686;10.030;2022-09-09T18:11:49;17.10;99.90
12746;DHT22;6437;53.686;10.030;2022-09-09T18:14:51;17.10;99.90
12746;DHT22;6437;53.686;10.030;2022-09-09T18:17:54;17.10;99.90
12746;DHT22;6437;53.686;10.030;2022-09-09T18:20:58;17.00;99.90
12746;DHT22;6437;53.686;10.030;2022-09-09T18:24:01;17.00;99.90
12746;DHT22;6437;53.686;10.030;2022-09-09T18:27:03;17.00;99.90
12746;DHT22;6437;53.686;10.030;2022-09-09T18:30:06;16.90;99.90
12746;DHT22;6437;53.686;10.030;2022-09-09T18:33:10;16.90;99.90
12746;DHT22;6437;53.686;10.030;2022-09-09T18:36:13;16.90;99.90
12746;DHT22;6437;53.686;10.030;2022-09-09T18:39:15;16.90;99.90
12746;DHT22;6437;53.686;10.030;2022-09-09T18:42:17;16.80;99.90
12746;DHT22;6437;53.686;10.030;2022-09-09T18:45:19;16.80;99.90
12746;DHT22;6437;53.686;10.030;2022-09-09T18:48:23;16.80;99.90
12746;DHT22;6437;53.686;10.030;2022-09-09T18:51:25;16.80;99.90
12746;DHT22;6437;53.686;10.030;2022-09-09T18:54:28;16.80;99.90
12746;DHT22;6437;53.686;10.030;2022-09-09T18:57:30;16.80;99.90
12746;DHT22;6437;53.686;10.030;2022-09-09T19:00:32;16.80;99.90
12746;DHT22;6437;53.686;10.030;2022-09-09T19:03:35;16.80;99.90
12746;DHT22;6437;53.686;10.030;2022-09-09T19:06:37;16.70;99.90
12746;DHT22;6437;53.686;10.030;2022-09-09T19:09:40;16.70;99.90
12746;DHT22;6437;53.686;10.030;2022-09-09T19:12:41;16.70;99.90
12746;DHT22;6437;53.686;10.030;2022-09-09T19:15:43;16.70;99.90
12746;DHT22;6437;53.686;10.030;2022-09-09T19:18:46;16.70;99.90
12746;DHT22;6437;53.686;10.030;2022-09-09T19:21:48;16.70;99.90